createdAt,value
2022-11-13T00:01:20.566Z,16.80
2022-11-13T00:03:47.256Z,16.08
2022-11-13T00:06:14.180Z,15.27
2022-11-13T00:08:40.806Z,15.65
2022-11-13T00:11:10.782Z,15.90
2022-11-13T00:13:37.043Z,16.27
2022-11-13T00:16:05.083Z,16.50
2022-11-13T00:18:33.919Z,15.02
2022-11-13T00:21:11.194Z,16.88
2022-11-13T00:23:37.934Z,17.10
2022-11-13T00:26:08.118Z,17.40
2022-11-13T00:28:34.568Z,18.48
2022-11-13T00:31:01.573Z,17.60
2022-11-13T00:33:54.971Z,18.10
2022-11-13T00:36:15.253Z,17.35
2022-11-13T00:38:41.660Z,18.67
2022-11-13T00:41:07.906Z,18.52
2022-11-13T00:43:34.226Z,17.70
2022-11-13T00:46:00.513Z,17.67
2022-11-13T00:48:27.150Z,17.73
2022-11-13T00:50:53.715Z,17.88
2022-11-13T00:53:20.102Z,16.42
2022-11-13T00:55:46.372Z,17.38
2022-11-13T00:58:13.219Z,16.58
2022-11-13T01:00:40.424Z,16.75
2022-11-13T01:03:06.671Z,16.13
2022-11-13T01:05:36.636Z,15.23
2022-11-13T01:08:03.225Z,17.42
2022-11-13T01:10:29.480Z,16.60
2022-11-13T01:12:55.715Z,15.45
2022-11-13T01:15:21.996Z,15.93
2022-11-13T01:17:48.271Z,15.30
2022-11-13T01:20:14.641Z,15.27
2022-11-13T01:22:40.900Z,15.43
2022-11-13T01:25:07.357Z,15.45
2022-11-13T01:27:35.748Z,15.23
2022-11-13T01:30:01.970Z,15.43
2022-11-13T01:32:28.269Z,14.63
2022-11-13T01:34:54.522Z,14.32
2022-11-13T01:37:20.758Z,14.82
2022-11-13T01:39:47.012Z,14.68
2022-11-13T01:42:13.302Z,14.85
2022-11-13T01:44:48.943Z,14.50
2022-11-13T01:47:15.806Z,14.70
2022-11-13T01:49:42.474Z,14.60
2022-11-13T01:52:11.302Z,15.00
2022-11-13T01:54:40.673Z,14.52
2022-11-13T01:57:07.040Z,14.27
2022-11-13T01:59:35.810Z,14.55
2022-11-13T02:02:02.168Z,15.52
2022-11-13T02:04:28.839Z,14.48
2022-11-13T02:07:05.750Z,14.10
2022-11-13T02:09:42.672Z,14.40
2022-11-13T02:12:11.050Z,15.05
2022-11-13T02:14:40.412Z,14.30
2022-11-13T02:17:08.340Z,15.18
2022-11-13T02:19:36.796Z,14.90
2022-11-13T02:22:15.037Z,12.88
2022-11-13T02:27:21.002Z,14.63
2022-11-13T02:29:47.279Z,14.85
2022-11-13T02:32:13.660Z,15.80
2022-11-13T02:34:39.889Z,14.93
2022-11-13T02:37:06.116Z,14.90
2022-11-13T02:39:32.412Z,13.82
2022-11-13T02:41:58.675Z,15.02
2022-11-13T02:44:24.960Z,15.95
2022-11-13T02:46:51.230Z,14.52
2022-11-13T02:49:17.470Z,16.00
2022-11-13T02:51:43.741Z,15.48
2022-11-13T02:54:15.586Z,15.88
2022-11-13T02:56:43.139Z,15.38
2022-11-13T02:59:09.447Z,14.65
2022-11-13T03:01:35.776Z,16.30
2022-11-13T03:04:02.123Z,15.57
2022-11-13T03:06:28.456Z,15.00
2022-11-13T03:08:54.728Z,15.20
2022-11-13T03:11:21.028Z,15.73
2022-11-13T03:13:47.283Z,15.40
2022-11-13T03:16:14.863Z,16.40
2022-11-13T03:21:08.895Z,16.17
2022-11-13T03:23:35.307Z,16.20
2022-11-13T03:26:07.614Z,14.75
2022-11-13T03:28:34.577Z,15.45
2022-11-13T03:31:01.264Z,14.80
2022-11-13T03:33:27.516Z,15.30
2022-11-13T03:35:53.909Z,15.95
2022-11-13T03:38:20.208Z,15.38
2022-11-13T03:40:46.683Z,14.70
2022-11-13T03:43:13.058Z,14.82
2022-11-13T03:45:39.323Z,15.15
2022-11-13T03:48:05.711Z,14.95
2022-11-13T03:50:31.955Z,14.77
2022-11-13T03:52:58.334Z,16.52
2022-11-13T03:55:24.571Z,15.00
2022-11-13T03:57:50.836Z,15.82
2022-11-13T04:00:17.389Z,15.38
2022-11-13T04:02:43.625Z,14.98
2022-11-13T04:05:10.087Z,14.85
2022-11-13T04:07:36.601Z,14.90
2022-11-13T04:10:02.988Z,14.20
2022-11-13T04:12:29.259Z,14.07
2022-11-13T04:14:55.513Z,14.88
2022-11-13T04:17:21.758Z,15.38
2022-11-13T04:19:48.007Z,14.65
2022-11-13T04:22:14.312Z,14.98
2022-11-13T04:24:40.552Z,15.00
2022-11-13T04:27:06.804Z,15.13
2022-11-13T04:29:33.163Z,14.77
2022-11-13T04:31:59.512Z,14.57
2022-11-13T04:34:26.469Z,14.40
2022-11-13T04:36:52.796Z,13.70
2022-11-13T04:39:19.106Z,13.18
2022-11-13T04:42:03.875Z,13.80
2022-11-13T04:44:30.114Z,13.52
2022-11-13T04:46:56.347Z,13.68
2022-11-13T04:49:22.726Z,13.32
2022-11-13T04:51:49.014Z,13.82
2022-11-13T04:54:15.371Z,14.02
2022-11-13T04:56:41.590Z,14.27
2022-11-13T04:59:08.028Z,13.98
2022-11-13T05:01:35.051Z,14.02
2022-11-13T05:04:01.625Z,12.73
2022-11-13T05:06:28.019Z,13.98
2022-11-13T05:08:54.343Z,13.25
2022-11-13T05:11:20.638Z,13.02
2022-11-13T05:13:46.927Z,13.93
2022-11-13T05:16:13.984Z,15.40
2022-11-13T05:18:40.714Z,15.20
2022-11-13T05:21:08.256Z,15.00
2022-11-13T05:26:01.664Z,14.15
2022-11-13T05:28:28.478Z,15.13
2022-11-13T05:31:02.254Z,15.75
2022-11-13T05:33:28.707Z,14.85
2022-11-13T05:35:55.051Z,14.38
2022-11-13T05:38:21.425Z,13.32
2022-11-13T05:40:47.710Z,13.55
2022-11-13T05:43:14.304Z,14.45
2022-11-13T05:45:40.547Z,13.75
2022-11-13T05:48:06.817Z,13.35
2022-11-13T05:50:33.217Z,13.70
2022-11-13T05:52:59.467Z,13.02
2022-11-13T05:55:25.731Z,13.88
2022-11-13T05:57:52.010Z,13.57
2022-11-13T06:00:18.466Z,13.98
2022-11-13T06:02:44.771Z,13.02
2022-11-13T06:05:11.077Z,13.35
2022-11-13T06:07:37.360Z,14.15
2022-11-13T06:10:03.830Z,13.05
2022-11-13T06:12:30.723Z,11.48
2022-11-13T06:14:56.984Z,13.35
2022-11-13T06:17:23.288Z,12.63
2022-11-13T06:19:49.595Z,12.30
2022-11-13T06:22:15.943Z,14.18
2022-11-13T06:24:42.250Z,11.80
2022-11-13T06:27:08.499Z,13.45
2022-11-13T06:29:34.733Z,12.30
2022-11-13T06:32:01.087Z,12.07
2022-11-13T06:34:27.401Z,12.65
2022-11-13T06:36:53.708Z,13.23
2022-11-13T06:39:20.012Z,11.80
2022-11-13T06:41:46.295Z,12.98
2022-11-13T06:44:12.551Z,12.32
2022-11-13T06:46:38.822Z,12.55
2022-11-13T06:49:05.112Z,13.75
2022-11-13T06:51:31.388Z,15.50
2022-11-13T06:53:58.261Z,47.22
2022-11-13T06:56:24.939Z,67.90
2022-11-13T06:58:51.208Z,71.75
2022-11-13T07:01:19.629Z,58.10
2022-11-13T07:03:46.336Z,49.92
2022-11-13T07:06:16.568Z,39.33
2022-11-13T07:08:43.170Z,31.05
2022-11-13T07:11:13.427Z,23.40
2022-11-13T07:13:39.902Z,21.08
2022-11-13T07:16:16.236Z,16.50
2022-11-13T07:18:44.377Z,14.82
2022-11-13T07:21:11.544Z,16.37
2022-11-13T07:23:42.805Z,15.82
2022-11-13T07:26:10.263Z,15.60
2022-11-13T07:28:36.790Z,15.75
2022-11-13T07:31:03.107Z,15.05
2022-11-13T07:33:29.511Z,14.57
2022-11-13T07:35:56.180Z,14.57
2022-11-13T07:38:22.835Z,13.30
2022-11-13T07:40:49.256Z,12.77
2022-11-13T07:43:15.585Z,13.40
2022-11-13T07:45:41.832Z,13.20
2022-11-13T07:48:08.185Z,13.35
2022-11-13T07:50:35.621Z,12.05
2022-11-13T07:53:03.717Z,13.10
2022-11-13T07:55:30.193Z,12.60
2022-11-13T07:57:57.875Z,10.80
2022-11-13T08:00:24.795Z,12.25
2022-11-13T08:02:51.335Z,12.00
2022-11-13T08:05:17.654Z,11.57
2022-11-13T08:07:51.085Z,12.25
2022-11-13T08:10:18.712Z,12.02
2022-11-13T08:12:45.463Z,12.63
2022-11-13T08:15:13.490Z,11.37
2022-11-13T08:17:40.115Z,10.98
2022-11-13T08:20:07.226Z,11.27
2022-11-13T08:22:33.789Z,11.10
2022-11-13T08:25:00.131Z,12.13
2022-11-13T08:27:26.426Z,11.32
2022-11-13T08:29:52.826Z,12.30
2022-11-13T08:32:19.636Z,11.25
2022-11-13T08:34:45.922Z,11.52
2022-11-13T08:37:12.238Z,11.50
2022-11-13T08:39:38.494Z,11.40
2022-11-13T08:42:05.217Z,10.80
2022-11-13T08:44:31.764Z,10.80
2022-11-13T08:46:58.070Z,10.48
2022-11-13T08:49:24.928Z,10.48
2022-11-13T08:51:51.238Z,11.18
2022-11-13T08:54:17.802Z,11.15
2022-11-13T08:56:44.076Z,10.43
2022-11-13T08:59:10.736Z,10.30
2022-11-13T09:01:37.067Z,10.03
2022-11-13T09:04:03.633Z,10.45
2022-11-13T09:06:30.095Z,10.03
2022-11-13T09:08:56.583Z,9.85
2022-11-13T09:11:22.913Z,9.75
2022-11-13T09:13:53.057Z,9.77
2022-11-13T09:16:20.119Z,10.10
2022-11-13T09:18:49.192Z,10.88
2022-11-13T09:21:15.489Z,9.75
2022-11-13T09:23:41.820Z,10.43
2022-11-13T09:26:08.083Z,10.88
2022-11-13T09:28:34.377Z,10.57
2022-11-13T09:31:03.538Z,10.20
2022-11-13T09:33:29.789Z,9.98
2022-11-13T09:35:56.018Z,9.73
2022-11-13T09:38:22.303Z,9.65
2022-11-13T09:40:48.617Z,10.02
2022-11-13T09:43:23.481Z,10.00
2022-11-13T09:45:51.765Z,9.05
2022-11-13T09:48:28.766Z,9.95
2022-11-13T09:50:55.850Z,9.35
2022-11-13T09:53:22.896Z,9.77
2022-11-13T09:56:01.525Z,9.38
2022-11-13T09:58:46.623Z,9.45
2022-11-13T10:01:20.810Z,9.52
2022-11-13T10:04:05.511Z,10.30
2022-11-13T10:06:38.477Z,8.82
2022-11-13T10:09:37.017Z,8.48
2022-11-13T10:12:06.499Z,8.37
2022-11-13T10:14:36.010Z,7.95
2022-11-13T10:17:02.385Z,8.52
2022-11-13T10:19:39.574Z,9.15
2022-11-13T10:22:32.076Z,8.20
2022-11-13T10:25:11.578Z,7.70
2022-11-13T10:27:38.234Z,10.98
2022-11-13T10:30:12.110Z,8.27
2022-11-13T10:32:38.365Z,7.53
2022-11-13T10:35:04.564Z,8.82
2022-11-13T10:37:48.423Z,7.15
2022-11-13T10:40:24.838Z,7.82
2022-11-13T10:42:51.379Z,6.68
2022-11-13T10:45:19.151Z,7.20
2022-11-13T10:48:04.267Z,7.57
2022-11-13T10:50:31.484Z,6.80
2022-11-13T10:52:57.888Z,6.35
2022-11-13T10:55:40.627Z,6.05
2022-11-13T10:58:14.438Z,6.10
2022-11-13T11:00:44.178Z,6.22
2022-11-13T11:03:14.395Z,6.70
2022-11-13T11:05:51.146Z,4.85
2022-11-13T11:08:26.187Z,5.65
2022-11-13T11:11:15.897Z,5.63
2022-11-13T11:13:42.150Z,5.40
2022-11-13T11:16:11.059Z,4.57
2022-11-13T11:18:39.686Z,4.97
2022-11-13T11:21:36.396Z,4.63
2022-11-13T11:24:14.717Z,4.25
2022-11-13T11:26:47.370Z,5.18
2022-11-13T11:29:14.141Z,4.88
2022-11-13T11:34:19.171Z,4.60
2022-11-13T11:37:05.713Z,3.78
2022-11-13T11:39:43.607Z,4.38
2022-11-13T11:42:09.930Z,4.57
2022-11-13T11:44:36.251Z,4.20
2022-11-13T11:47:02.531Z,4.68
2022-11-13T11:49:29.199Z,4.38
2022-11-13T11:52:10.370Z,4.57
2022-11-13T11:54:37.929Z,4.47
2022-11-13T11:57:11.321Z,4.57
2022-11-13T11:59:40.364Z,4.43
2022-11-13T12:02:06.628Z,4.60
2022-11-13T12:04:52.003Z,4.55
2022-11-13T12:07:37.064Z,4.60
2022-11-13T12:10:03.588Z,4.20
2022-11-13T12:12:32.714Z,4.22
2022-11-13T12:15:08.172Z,3.85
2022-11-13T12:17:34.406Z,4.05
2022-11-13T12:20:19.080Z,4.57
2022-11-13T12:23:04.970Z,5.78
2022-11-13T12:25:43.360Z,4.80
2022-11-13T12:28:15.357Z,4.50
2022-11-13T12:30:48.447Z,3.95
2022-11-13T12:33:17.816Z,3.85
2022-11-13T12:35:45.839Z,3.97
2022-11-13T12:38:16.273Z,4.55
2022-11-13T12:40:48.787Z,5.20
2022-11-13T12:43:18.100Z,5.32
2022-11-13T12:45:49.681Z,4.60
2022-11-13T12:48:15.885Z,4.20
2022-11-13T12:50:42.232Z,4.53
2022-11-13T12:55:36.121Z,4.22
2022-11-13T12:58:08.277Z,4.10
2022-11-13T13:00:35.432Z,3.65
2022-11-13T13:03:08.373Z,4.13
2022-11-13T13:05:45.935Z,3.90
2022-11-13T13:08:22.537Z,4.40
2022-11-13T13:10:51.975Z,3.95
2022-11-13T13:13:37.083Z,5.03
2022-11-13T13:16:04.402Z,4.22
2022-11-13T13:18:32.835Z,3.78
2022-11-13T13:21:10.607Z,4.20
2022-11-13T13:23:38.836Z,4.38
2022-11-13T13:26:19.657Z,4.13
2022-11-13T13:28:56.255Z,4.50
2022-11-13T13:31:40.728Z,3.95
2022-11-13T13:34:25.861Z,3.97
2022-11-13T13:37:11.028Z,4.72
2022-11-13T13:39:51.343Z,4.60
2022-11-13T13:42:36.307Z,4.45
2022-11-13T13:45:31.902Z,4.50
2022-11-13T13:47:58.606Z,4.57
2022-11-13T13:50:27.452Z,4.53
2022-11-13T13:52:56.100Z,4.30
2022-11-13T13:55:26.639Z,4.93
2022-11-13T13:57:52.913Z,4.78
2022-11-13T14:00:20.347Z,4.65
2022-11-13T14:02:51.128Z,4.95
2022-11-13T14:05:24.784Z,5.10
2022-11-13T14:07:51.113Z,4.85
2022-11-13T14:10:18.838Z,5.13
2022-11-13T14:12:45.822Z,5.25
2022-11-13T14:17:39.174Z,5.30
2022-11-13T14:20:05.756Z,5.20
2022-11-13T14:22:32.102Z,5.82
2022-11-13T14:25:00.721Z,5.47
2022-11-13T14:27:27.574Z,5.65
2022-11-13T14:30:00.749Z,5.85
2022-11-13T14:32:42.959Z,5.47
2022-11-13T14:35:18.999Z,5.47
2022-11-13T14:37:45.968Z,5.65
2022-11-13T14:40:20.983Z,5.50
2022-11-13T14:42:49.357Z,5.20
2022-11-13T14:45:23.099Z,5.55
2022-11-13T14:48:17.211Z,5.10
2022-11-13T14:51:03.227Z,5.60
2022-11-13T14:53:36.681Z,5.75
2022-11-13T14:56:05.170Z,5.38
2022-11-13T14:58:32.739Z,6.00
2022-11-13T15:00:59.889Z,5.05
2022-11-13T15:03:27.259Z,5.45
2022-11-13T15:05:53.988Z,5.55
2022-11-13T15:08:20.533Z,5.10
2022-11-13T15:10:47.030Z,5.00
2022-11-13T15:13:14.393Z,5.43
2022-11-13T15:18:07.281Z,5.60
2022-11-13T15:20:33.613Z,5.85
2022-11-13T15:22:59.975Z,6.20
2022-11-13T15:25:26.978Z,6.10
2022-11-13T15:27:53.323Z,6.40
2022-11-13T15:30:19.665Z,6.30
2022-11-13T15:32:46.241Z,6.47
2022-11-13T15:35:15.243Z,6.18
2022-11-13T15:37:41.563Z,6.80
2022-11-13T15:40:08.022Z,6.38
2022-11-13T15:42:35.372Z,6.90
2022-11-13T15:47:27.933Z,7.57
2022-11-13T15:50:13.011Z,7.65
2022-11-13T15:52:41.054Z,7.32
2022-11-13T15:57:33.470Z,8.63
2022-11-13T15:59:59.776Z,8.70
2022-11-13T16:02:27.250Z,9.20
2022-11-13T16:04:57.084Z,9.68
2022-11-13T16:07:26.798Z,8.85
2022-11-13T16:09:53.186Z,9.15
2022-11-13T16:12:19.500Z,8.68
2022-11-13T16:14:46.007Z,9.00
2022-11-13T16:17:13.332Z,8.80
2022-11-13T16:22:12.761Z,8.85
2022-11-13T16:24:39.037Z,8.50
2022-11-13T16:27:05.483Z,8.73
2022-11-13T16:29:31.744Z,9.13
2022-11-13T16:31:58.109Z,8.82
2022-11-13T16:34:24.377Z,9.05
2022-11-13T16:36:51.123Z,8.93
2022-11-13T16:39:17.430Z,9.05
2022-11-13T16:41:44.031Z,9.40
2022-11-13T16:44:10.307Z,8.98
2022-11-13T16:46:38.191Z,9.50
2022-11-13T16:49:04.435Z,8.88
2022-11-13T16:51:30.695Z,7.97
2022-11-13T16:53:56.929Z,8.55
2022-11-13T16:56:30.609Z,7.75
2022-11-13T16:58:57.712Z,8.63
2022-11-13T17:01:24.841Z,7.35
2022-11-13T17:03:51.607Z,8.80
2022-11-13T17:06:21.086Z,13.60
2022-11-13T17:08:55.498Z,11.02
2022-11-13T17:11:22.928Z,10.40
2022-11-13T17:16:15.449Z,12.75
2022-11-13T17:18:42.072Z,13.85
2022-11-13T17:21:08.343Z,13.85
2022-11-13T17:23:35.009Z,13.95
2022-11-13T17:26:01.908Z,14.77
2022-11-13T17:28:28.226Z,11.85
2022-11-13T17:30:58.149Z,13.00
2022-11-13T17:33:25.433Z,12.02
2022-11-13T17:35:55.232Z,10.75
2022-11-13T17:38:21.578Z,11.25
2022-11-13T17:40:47.826Z,10.38
2022-11-13T17:43:14.509Z,9.82
2022-11-13T17:45:41.077Z,9.95
2022-11-13T17:48:07.660Z,10.13
2022-11-13T17:50:33.983Z,11.50
2022-11-13T17:53:00.283Z,13.93
2022-11-13T17:55:26.560Z,12.13
2022-11-13T17:57:52.848Z,11.27
2022-11-13T18:00:19.205Z,9.77
2022-11-13T18:02:45.737Z,11.65
2022-11-13T18:05:12.002Z,11.07
2022-11-13T18:07:38.488Z,10.05
2022-11-13T18:10:04.948Z,10.60
2022-11-13T18:12:31.189Z,10.57
2022-11-13T18:14:57.443Z,10.18
2022-11-13T18:17:23.800Z,10.77
2022-11-13T18:19:50.726Z,11.38
2022-11-13T18:22:17.301Z,11.05
2022-11-13T18:24:43.708Z,13.07
2022-11-13T18:27:10.248Z,11.57
2022-11-13T18:29:36.479Z,12.48
2022-11-13T18:32:02.748Z,12.07
2022-11-13T18:34:29.079Z,11.68
2022-11-13T18:36:55.496Z,10.95
2022-11-13T18:39:21.795Z,11.52
2022-11-13T18:41:48.121Z,11.57
2022-11-13T18:44:14.401Z,12.02
2022-11-13T18:46:40.919Z,12.40
2022-11-13T18:49:09.054Z,11.70
2022-11-13T18:51:35.979Z,14.18
2022-11-13T18:54:08.363Z,13.00
2022-11-13T18:56:39.921Z,13.13
2022-11-13T18:59:06.635Z,12.30
2022-11-13T19:01:34.717Z,12.77
2022-11-13T19:04:21.619Z,13.77
2022-11-13T19:06:49.297Z,12.48
2022-11-13T19:09:16.578Z,12.50
2022-11-13T19:11:43.747Z,12.40
2022-11-13T19:14:12.670Z,11.77
2022-11-13T19:16:39.309Z,15.00
2022-11-13T19:19:14.086Z,13.80
2022-11-13T19:21:40.421Z,13.13
2022-11-13T19:24:06.954Z,14.27
2022-11-13T19:26:33.354Z,14.75
2022-11-13T19:28:59.654Z,13.32
2022-11-13T19:31:27.141Z,13.82
2022-11-13T19:36:19.683Z,13.38
2022-11-13T19:38:45.969Z,13.75
2022-11-13T19:41:12.682Z,14.35
2022-11-13T19:43:40.248Z,14.65
2022-11-13T19:48:33.518Z,14.52
2022-11-13T19:51:03.776Z,14.80
2022-11-13T19:53:31.358Z,15.00
2022-11-13T19:58:23.918Z,13.82
2022-11-13T20:00:50.402Z,14.73
2022-11-13T20:03:16.795Z,14.40
2022-11-13T20:05:43.670Z,17.50
2022-11-13T20:08:11.483Z,15.75
2022-11-13T20:10:38.460Z,15.32
2022-11-13T20:13:05.223Z,13.80
2022-11-13T20:15:31.772Z,15.45
2022-11-13T20:17:58.093Z,14.13
2022-11-13T20:20:24.613Z,15.50
2022-11-13T20:22:50.881Z,14.10
2022-11-13T20:25:17.118Z,15.68
2022-11-13T20:27:47.265Z,14.50
2022-11-13T20:30:13.867Z,14.55
2022-11-13T20:32:40.251Z,16.13
2022-11-13T20:35:07.292Z,17.40
2022-11-13T20:37:33.713Z,19.63
2022-11-13T20:40:00.096Z,17.08
2022-11-13T20:42:26.398Z,18.67
2022-11-13T20:44:56.170Z,19.77
2022-11-13T20:47:26.490Z,17.25
2022-11-13T20:49:52.702Z,16.27
2022-11-13T20:52:18.961Z,16.90
2022-11-13T20:54:45.265Z,19.83
2022-11-13T20:57:12.949Z,21.50
2022-11-13T20:59:39.251Z,20.67
2022-11-13T21:02:05.612Z,18.38
2022-11-13T21:04:31.972Z,19.67
2022-11-13T21:06:58.320Z,17.70
2022-11-13T21:09:24.579Z,19.98
2022-11-13T21:11:50.833Z,20.58
2022-11-13T21:14:17.087Z,19.65
2022-11-13T21:16:43.365Z,20.80
2022-11-13T21:19:09.843Z,20.40
2022-11-13T21:21:36.898Z,20.17
2022-11-13T21:24:03.480Z,22.38
2022-11-13T21:26:29.888Z,21.27
2022-11-13T21:28:56.676Z,22.50
2022-11-13T21:31:23.088Z,23.30
2022-11-13T21:33:49.871Z,23.92
2022-11-13T21:36:17.412Z,23.30
2022-11-13T21:41:23.234Z,23.33
2022-11-13T21:43:49.724Z,22.92
2022-11-13T21:46:16.392Z,23.15
2022-11-13T21:48:42.714Z,25.00
2022-11-13T21:51:09.618Z,26.05
2022-11-13T21:53:35.903Z,24.67
2022-11-13T21:56:02.258Z,25.05
2022-11-13T21:58:32.234Z,25.55
2022-11-13T22:00:58.771Z,25.48
2022-11-13T22:03:25.693Z,26.33
2022-11-13T22:05:51.978Z,26.73
2022-11-13T22:08:18.253Z,26.10
2022-11-13T22:10:44.497Z,27.77
2022-11-13T22:13:10.795Z,26.38
2022-11-13T22:15:37.057Z,27.48
2022-11-13T22:18:03.353Z,27.65
2022-11-13T22:20:29.616Z,27.15
2022-11-13T22:22:55.890Z,26.90
2022-11-13T22:25:22.141Z,28.38
2022-11-13T22:27:48.396Z,28.15
2022-11-13T22:30:14.793Z,29.85
2022-11-13T22:32:41.057Z,29.63
2022-11-13T22:35:07.527Z,28.80
2022-11-13T22:37:33.767Z,27.90
2022-11-13T22:40:00.047Z,30.33
2022-11-13T22:42:26.577Z,29.05
2022-11-13T22:44:56.464Z,28.88
2022-11-13T22:47:23.070Z,29.52
2022-11-13T22:49:49.335Z,29.08
2022-11-13T22:52:15.549Z,29.25
2022-11-13T22:54:41.813Z,28.42
2022-11-13T22:57:08.084Z,29.98
2022-11-13T22:59:34.334Z,28.23
2022-11-13T23:02:00.580Z,27.52
2022-11-13T23:04:26.938Z,29.25
2022-11-13T23:06:53.213Z,29.70
2022-11-13T23:09:19.494Z,29.88
2022-11-13T23:11:45.745Z,28.25
2022-11-13T23:14:13.757Z,30.17
2022-11-13T23:16:40.002Z,28.30
2022-11-13T23:19:06.558Z,28.17
2022-11-13T23:21:33.206Z,28.63
2022-11-13T23:23:59.970Z,30.20
2022-11-13T23:26:27.064Z,29.27
2022-11-13T23:28:54.083Z,27.73
2022-11-13T23:31:21.074Z,28.40
2022-11-13T23:33:47.347Z,29.80
2022-11-13T23:36:14.355Z,28.40
2022-11-13T23:38:41.148Z,28.00
2022-11-13T23:41:07.404Z,30.52
2022-11-13T23:44:02.103Z,28.80
2022-11-13T23:46:19.907Z,28.88
2022-11-13T23:48:46.230Z,28.08
2022-11-13T23:51:12.486Z,27.75
2022-11-13T23:53:38.769Z,28.95
2022-11-13T23:56:05.222Z,29.75
2022-11-13T23:58:32.589Z,27.35
